sensor_id;sensor_type;location;lat;lon;timestamp;temperature;humidity
26342;DHT22;14054;50.108;8.640;2023-02-26T00:02:23;1.40;99.90
26342;DHT22;14054;50.108;8.640;2023-02-26T00:04:48;1.40;99.90
26342;DHT22;14054;50.108;8.640;2023-02-26T00:07:14;1.40;99.90
26342;DHT22;14054;50.108;8.640;2023-02-26T00:09:39;1.40;99.90
26342;DHT22;14054;50.108;8.640;2023-02-26T00:12:05;1.40;99.90
26342;DHT22;14054;50.108;8.640;2023-02-26T00:14:30;1.40;99.90
26342;DHT22;14054;50.108;8.640;2023-02-26T00:19:40;1.30;99.90
26342;DHT22;14054;50.108;8.640;2023-02-26T00:22:05;1.30;99.90
26342;DHT22;14054;50.108;8.640;2023-02-26T00:24:31;1.30;99.90
26342;DHT22;14054;50.108;8.640;2023-02-26T00:26:57;1.30;99.90
26342;DHT22;14054;50.108;8.640;2023-02-26T00:29:22;1.20;99.90
26342;DHT22;14054;50.108;8.640;2023-02-26T00:31:48;1.20;99.90
26342;DHT22;14054;50.108;8.640;2023-02-26T00:34:14;1.20;99.90
26342;DHT22;14054;50.108;8.640;2023-02-26T00:41:56;1.20;99.90
26342;DHT22;14054;50.108;8.640;2023-02-26T00:44:22;1.20;99.90
26342;DHT22;14054;50.108;8.640;2023-02-26T00:46:49;1.20;99.90
26342;DHT22;14054;50.108;8.640;2023-02-26T00:49:27;1.20;99.90
26342;DHT22;14054;50.108;8.640;2023-02-26T00:52:01;1.20;99.90
26342;DHT22;14054;50.108;8.640;2023-02-26T00:54:29;1.20;99.90
26342;DHT22;14054;50.108;8.640;2023-02-26T00:56:55;1.20;99.90
26342;DHT22;14054;50.108;8.640;2023-02-26T00:59:22;1.30;99.90
26342;DHT22;14054;50.108;8.640;2023-02-26T01:01:48;1.30;99.90
26342;DHT22;14054;50.108;8.640;2023-02-26T01:04:14;1.30;99.90
26342;DHT22;14054;50.108;8.640;2023-02-26T01:06:42;1.30;99.90
26342;DHT22;14054;50.108;8.640;2023-02-26T01:09:10;1.30;99.90
26342;DHT22;14054;50.108;8.640;2023-02-26T01:11:40;1.30;99.90
26342;DHT22;14054;50.108;8.640;2023-02-26T01:14:06;1.30;99.90
26342;DHT22;14054;50.108;8.640;2023-02-26T01:16:41;1.30;99.90
26342;DHT22;14054;50.108;8.640;2023-02-26T01:21:42;1.30;99.90
26342;DHT22;14054;50.108;8.640;2023-02-26T01:24:10;1.40;99.90
26342;DHT22;14054;50.108;8.640;2023-02-26T01:26:38;1.40;99.90
26342;DHT22;14054;50.108;8.640;2023-02-26T01:29:04;1.40;99.90
26342;DHT22;14054;50.108;8.640;2023-02-26T01:33:57;1.30;99.90
26342;DHT22;14054;50.108;8.640;2023-02-26T01:36:25;1.30;99.90
26342;DHT22;14054;50.108;8.640;2023-02-26T01:39:03;1.30;99.90
26342;DHT22;14054;50.108;8.640;2023-02-26T01:41:47;1.30;99.90
26342;DHT22;14054;50.108;8.640;2023-02-26T01:44:15;1.30;99.90
26342;DHT22;14054;50.108;8.640;2023-02-26T01:49:16;1.40;99.90
26342;DHT22;14054;50.108;8.640;2023-02-26T01:51:49;1.30;99.90
26342;DHT22;14054;50.108;8.640;2023-02-26T01:54:17;1.30;99.90
26342;DHT22;14054;50.108;8.640;2023-02-26T01:56:43;1.30;99.90
26342;DHT22;14054;50.108;8.640;2023-02-26T01:59:09;1.20;99.90
26342;DHT22;14054;50.108;8.640;2023-02-26T02:01:35;1.20;99.90
26342;DHT22;14054;50.108;8.640;2023-02-26T02:04:01;1.10;99.90
26342;DHT22;14054;50.108;8.640;2023-02-26T02:06:27;1.10;99.90
26342;DHT22;14054;50.108;8.640;2023-02-26T02:08:53;1.00;99.90
26342;DHT22;14054;50.108;8.640;2023-02-26T02:11:19;1.00;99.90
26342;DHT22;14054;50.108;8.640;2023-02-26T02:16:16;1.00;99.90
26342;DHT22;14054;50.108;8.640;2023-02-26T02:18:51;1.00;99.90
26342;DHT22;14054;50.108;8.640;2023-02-26T02:21:27;1.10;99.90
26342;DHT22;14054;50.108;8.640;2023-02-26T02:23:56;1.10;99.90
26342;DHT22;14054;50.108;8.640;2023-02-26T02:26:36;1.20;99.90
26342;DHT22;14054;50.108;8.640;2023-02-26T02:32:02;1.40;99.90
26342;DHT22;14054;50.108;8.640;2023-02-26T02:37:04;1.30;99.90
26342;DHT22;14054;50.108;8.640;2023-02-26T02:39:31;1.20;99.90
26342;DHT22;14054;50.108;8.640;2023-02-26T02:41:59;1.20;99.90
26342;DHT22;14054;50.108;8.640;2023-02-26T02:44:26;1.20;99.90
26342;DHT22;14054;50.108;8.640;2023-02-26T02:46:53;1.10;99.90
26342;DHT22;14054;50.108;8.640;2023-02-26T02:49:21;1.10;99.90
26342;DHT22;14054;50.108;8.640;2023-02-26T02:51:55;1.00;99.90
26342;DHT22;14054;50.108;8.640;2023-02-26T02:54:34;0.90;99.90
26342;DHT22;14054;50.108;8.640;2023-02-26T02:57:02;0.90;99.90
26342;DHT22;14054;50.108;8.640;2023-02-26T02:59:36;0.70;99.90
26342;DHT22;14054;50.108;8.640;2023-02-26T03:02:06;0.70;99.90
26342;DHT22;14054;50.108;8.640;2023-02-26T03:04:34;0.60;99.90
26342;DHT22;14054;50.108;8.640;2023-02-26T03:07:00;0.60;99.90
26342;DHT22;14054;50.108;8.640;2023-02-26T03:09:25;0.60;99.90
26342;DHT22;14054;50.108;8.640;2023-02-26T03:11:51;0.60;99.90
26342;DHT22;14054;50.108;8.640;2023-02-26T03:14:16;0.50;99.90
26342;DHT22;14054;50.108;8.640;2023-02-26T03:16:53;0.40;99.90
26342;DHT22;14054;50.108;8.640;2023-02-26T03:19:22;0.40;99.90
26342;DHT22;14054;50.108;8.640;2023-02-26T03:24:39;0.40;99.90
26342;DHT22;14054;50.108;8.640;2023-02-26T03:27:10;0.30;99.90
26342;DHT22;14054;50.108;8.640;2023-02-26T03:32:07;0.20;99.90
26342;DHT22;14054;50.108;8.640;2023-02-26T03:37:02;0.20;99.90
26342;DHT22;14054;50.108;8.640;2023-02-26T03:39:30;0.20;99.90
26342;DHT22;14054;50.108;8.640;2023-02-26T03:42:01;0.20;99.90
26342;DHT22;14054;50.108;8.640;2023-02-26T03:46:56;0.10;99.90
26342;DHT22;14054;50.108;8.640;2023-02-26T03:49:30;0.20;99.90
26342;DHT22;14054;50.108;8.640;2023-02-26T03:51:58;0.10;99.90
26342;DHT22;14054;50.108;8.640;2023-02-26T03:54:34;0.10;99.90
26342;DHT22;14054;50.108;8.640;2023-02-26T03:57:01;0.10;99.90
26342;DHT22;14054;50.108;8.640;2023-02-26T03:59:27;0.10;99.90
26342;DHT22;14054;50.108;8.640;2023-02-26T04:01:58;0.10;99.90
26342;DHT22;14054;50.108;8.640;2023-02-26T04:04:29;0.10;99.90
26342;DHT22;14054;50.108;8.640;2023-02-26T04:06:55;0.10;99.90
26342;DHT22;14054;50.108;8.640;2023-02-26T04:09:21;0.10;99.90
26342;DHT22;14054;50.108;8.640;2023-02-26T04:11:47;0.10;99.90
26342;DHT22;14054;50.108;8.640;2023-02-26T04:14:13;0.10;99.90
26342;DHT22;14054;50.108;8.640;2023-02-26T04:16:38;0.20;99.90
26342;DHT22;14054;50.108;8.640;2023-02-26T04:19:04;0.20;99.90
26342;DHT22;14054;50.108;8.640;2023-02-26T04:21:29;0.20;99.90
26342;DHT22;14054;50.108;8.640;2023-02-26T04:23:55;0.20;99.90
26342;DHT22;14054;50.108;8.640;2023-02-26T04:26:20;0.20;99.90
26342;DHT22;14054;50.108;8.640;2023-02-26T04:28:45;0.10;99.90
26342;DHT22;14054;50.108;8.640;2023-02-26T04:31:11;0.10;99.90
26342;DHT22;14054;50.108;8.640;2023-02-26T04:33:36;0.00;99.90
26342;DHT22;14054;50.108;8.640;2023-02-26T04:36:02;0.00;99.90
26342;DHT22;14054;50.108;8.640;2023-02-26T04:38:27;0.00;99.90
26342;DHT22;14054;50.108;8.640;2023-02-26T04:40:53;0.00;99.90
26342;DHT22;14054;50.108;8.640;2023-02-26T04:43:19;0.00;99.90
26342;DHT22;14054;50.108;8.640;2023-02-26T04:45:45;0.00;99.90
26342;DHT22;14054;50.108;8.640;2023-02-26T04:48:11;-0.10;99.90
26342;DHT22;14054;50.108;8.640;2023-02-26T04:50:36;-0.10;99.90
26342;DHT22;14054;50.108;8.640;2023-02-26T04:53:02;-0.10;99.90
26342;DHT22;14054;50.108;8.640;2023-02-26T04:55:27;-0.10;99.90
26342;DHT22;14054;50.108;8.640;2023-02-26T04:57:52;-0.10;99.90
26342;DHT22;14054;50.108;8.640;2023-02-26T05:00:18;-0.10;99.90
26342;DHT22;14054;50.108;8.640;2023-02-26T05:02:44;-0.10;99.90
26342;DHT22;14054;50.108;8.640;2023-02-26T05:05:10;-0.20;99.90
26342;DHT22;14054;50.108;8.640;2023-02-26T05:07:35;-0.10;99.90
26342;DHT22;14054;50.108;8.640;2023-02-26T05:10:00;-0.10;99.90
26342;DHT22;14054;50.108;8.640;2023-02-26T05:12:26;-0.10;99.90
26342;DHT22;14054;50.108;8.640;2023-02-26T05:14:51;-0.20;99.90
26342;DHT22;14054;50.108;8.640;2023-02-26T05:17:17;-0.20;99.90
26342;DHT22;14054;50.108;8.640;2023-02-26T05:19:42;-0.20;99.90
26342;DHT22;14054;50.108;8.640;2023-02-26T05:22:08;-0.30;99.90
26342;DHT22;14054;50.108;8.640;2023-02-26T05:24:33;-0.20;99.90
26342;DHT22;14054;50.108;8.640;2023-02-26T05:26:59;-0.20;99.90
26342;DHT22;14054;50.108;8.640;2023-02-26T05:29:25;-0.30;99.90
26342;DHT22;14054;50.108;8.640;2023-02-26T05:31:50;-0.20;99.90
26342;DHT22;14054;50.108;8.640;2023-02-26T05:34:15;-0.20;99.90
26342;DHT22;14054;50.108;8.640;2023-02-26T05:36:41;-0.20;99.90
26342;DHT22;14054;50.108;8.640;2023-02-26T05:39:07;-0.10;99.90
26342;DHT22;14054;50.108;8.640;2023-02-26T05:41:33;-0.10;99.90
26342;DHT22;14054;50.108;8.640;2023-02-26T05:43:58;-0.10;99.90
26342;DHT22;14054;50.108;8.640;2023-02-26T05:46:24;-0.10;99.90
26342;DHT22;14054;50.108;8.640;2023-02-26T05:48:49;-0.20;99.90
26342;DHT22;14054;50.108;8.640;2023-02-26T05:51:15;-0.20;99.90
26342;DHT22;14054;50.108;8.640;2023-02-26T05:53:40;-0.20;99.90
26342;DHT22;14054;50.108;8.640;2023-02-26T05:56:06;-0.20;99.90
26342;DHT22;14054;50.108;8.640;2023-02-26T05:58:31;-0.20;99.90
26342;DHT22;14054;50.108;8.640;2023-02-26T06:00:58;-0.20;99.90
26342;DHT22;14054;50.108;8.640;2023-02-26T06:03:24;-0.10;99.90
26342;DHT22;14054;50.108;8.640;2023-02-26T06:05:50;-0.10;99.90
26342;DHT22;14054;50.108;8.640;2023-02-26T06:08:15;-0.10;99.90
26342;DHT22;14054;50.108;8.640;2023-02-26T06:10:41;-0.10;99.90
26342;DHT22;14054;50.108;8.640;2023-02-26T06:13:07;0.00;99.90
26342;DHT22;14054;50.108;8.640;2023-02-26T06:15:32;0.00;99.90
26342;DHT22;14054;50.108;8.640;2023-02-26T06:17:57;0.00;99.90
26342;DHT22;14054;50.108;8.640;2023-02-26T06:20:23;0.00;99.90
26342;DHT22;14054;50.108;8.640;2023-02-26T06:22:48;0.00;99.90
26342;DHT22;14054;50.108;8.640;2023-02-26T06:25:14;-0.10;99.90
26342;DHT22;14054;50.108;8.640;2023-02-26T06:27:40;-0.10;99.90
26342;DHT22;14054;50.108;8.640;2023-02-26T06:30:05;-0.10;99.90
26342;DHT22;14054;50.108;8.640;2023-02-26T06:32:31;-0.10;99.90
26342;DHT22;14054;50.108;8.640;2023-02-26T06:34:56;-0.10;99.90
26342;DHT22;14054;50.108;8.640;2023-02-26T06:37:22;-0.10;99.90
26342;DHT22;14054;50.108;8.640;2023-02-26T06:39:47;-0.10;99.90
26342;DHT22;14054;50.108;8.640;2023-02-26T06:42:13;-0.10;99.90
26342;DHT22;14054;50.108;8.640;2023-02-26T06:44:38;0.00;99.90
26342;DHT22;14054;50.108;8.640;2023-02-26T06:47:04;0.00;99.90
26342;DHT22;14054;50.108;8.640;2023-02-26T06:49:29;0.00;99.90
26342;DHT22;14054;50.108;8.640;2023-02-26T06:51:54;0.00;99.90
26342;DHT22;14054;50.108;8.640;2023-02-26T06:54:20;0.00;99.90
26342;DHT22;14054;50.108;8.640;2023-02-26T06:56:46;0.00;99.90
26342;DHT22;14054;50.108;8.640;2023-02-26T06:59:11;0.00;99.90
26342;DHT22;14054;50.108;8.640;2023-02-26T07:01:37;0.00;99.90
26342;DHT22;14054;50.108;8.640;2023-02-26T07:04:03;0.00;99.90
26342;DHT22;14054;50.108;8.640;2023-02-26T07:06:28;0.00;99.90
26342;DHT22;14054;50.108;8.640;2023-02-26T07:08:54;0.00;99.90
26342;DHT22;14054;50.108;8.640;2023-02-26T07:11:19;0.00;99.90
26342;DHT22;14054;50.108;8.640;2023-02-26T07:13:45;0.00;99.90
26342;DHT22;14054;50.108;8.640;2023-02-26T07:16:10;0.10;99.90
26342;DHT22;14054;50.108;8.640;2023-02-26T07:18:36;0.20;99.90
26342;DHT22;14054;50.108;8.640;2023-02-26T07:21:02;0.20;99.90
26342;DHT22;14054;50.108;8.640;2023-02-26T07:23:28;0.20;99.90
26342;DHT22;14054;50.108;8.640;2023-02-26T07:25:54;0.30;99.90
26342;DHT22;14054;50.108;8.640;2023-02-26T07:28:20;0.40;99.90
26342;DHT22;14054;50.108;8.640;2023-02-26T07:30:46;0.40;99.90
26342;DHT22;14054;50.108;8.640;2023-02-26T07:33:11;0.40;99.90
26342;DHT22;14054;50.108;8.640;2023-02-26T07:35:37;0.40;99.90
26342;DHT22;14054;50.108;8.640;2023-02-26T07:38:03;0.50;99.90
26342;DHT22;14054;50.108;8.640;2023-02-26T07:40:28;0.70;99.90
26342;DHT22;14054;50.108;8.640;2023-02-26T07:42:54;0.70;99.90
26342;DHT22;14054;50.108;8.640;2023-02-26T07:45:19;0.80;99.90
26342;DHT22;14054;50.108;8.640;2023-02-26T07:47:47;0.90;99.90
26342;DHT22;14054;50.108;8.640;2023-02-26T07:50:12;1.00;99.90
26342;DHT22;14054;50.108;8.640;2023-02-26T07:52:38;1.10;99.90
26342;DHT22;14054;50.108;8.640;2023-02-26T07:55:04;1.20;99.90
26342;DHT22;14054;50.108;8.640;2023-02-26T07:57:29;1.40;99.90
26342;DHT22;14054;50.108;8.640;2023-02-26T07:59:55;1.60;99.90
26342;DHT22;14054;50.108;8.640;2023-02-26T08:02:20;2.00;99.90
26342;DHT22;14054;50.108;8.640;2023-02-26T08:04:47;2.30;99.90
26342;DHT22;14054;50.108;8.640;2023-02-26T08:07:13;2.60;99.90
26342;DHT22;14054;50.108;8.640;2023-02-26T08:09:38;2.30;99.90
26342;DHT22;14054;50.108;8.640;2023-02-26T08:12:04;2.10;99.90
26342;DHT22;14054;50.108;8.640;2023-02-26T08:14:29;2.20;99.90
26342;DHT22;14054;50.108;8.640;2023-02-26T08:16:55;2.60;99.90
26342;DHT22;14054;50.108;8.640;2023-02-26T08:19:20;2.60;99.90
26342;DHT22;14054;50.108;8.640;2023-02-26T08:21:46;2.80;99.90
26342;DHT22;14054;50.108;8.640;2023-02-26T08:24:11;3.00;99.90
26342;DHT22;14054;50.108;8.640;2023-02-26T08:26:37;3.10;99.90
26342;DHT22;14054;50.108;8.640;2023-02-26T08:29:02;2.80;99.90
26342;DHT22;14054;50.108;8.640;2023-02-26T08:31:28;2.70;99.90
26342;DHT22;14054;50.108;8.640;2023-02-26T08:33:53;2.50;99.90
26342;DHT22;14054;50.108;8.640;2023-02-26T08:36:19;2.60;99.90
26342;DHT22;14054;50.108;8.640;2023-02-26T08:38:46;2.50;99.90
26342;DHT22;14054;50.108;8.640;2023-02-26T08:41:11;2.40;99.90
26342;DHT22;14054;50.108;8.640;2023-02-26T08:43:37;2.40;99.90
26342;DHT22;14054;50.108;8.640;2023-02-26T08:46:02;2.80;99.90
26342;DHT22;14054;50.108;8.640;2023-02-26T08:48:28;2.90;99.90
26342;DHT22;14054;50.108;8.640;2023-02-26T08:50:53;3.20;99.90
26342;DHT22;14054;50.108;8.640;2023-02-26T08:53:19;3.20;99.90
26342;DHT22;14054;50.108;8.640;2023-02-26T08:55:48;3.20;99.90
26342;DHT22;14054;50.108;8.640;2023-02-26T08:58:14;3.00;99.90
26342;DHT22;14054;50.108;8.640;2023-02-26T09:00:39;3.10;99.90
26342;DHT22;14054;50.108;8.640;2023-02-26T09:03:05;3.20;99.90
26342;DHT22;14054;50.108;8.640;2023-02-26T09:05:30;3.20;99.90
26342;DHT22;14054;50.108;8.640;2023-02-26T09:07:55;3.20;99.90
26342;DHT22;14054;50.108;8.640;2023-02-26T09:10:21;3.30;99.90
26342;DHT22;14054;50.108;8.640;2023-02-26T09:12:46;3.10;99.90
26342;DHT22;14054;50.108;8.640;2023-02-26T09:15:12;2.90;99.90
26342;DHT22;14054;50.108;8.640;2023-02-26T09:17:39;3.20;99.90
26342;DHT22;14054;50.108;8.640;2023-02-26T09:20:04;2.70;99.90
26342;DHT22;14054;50.108;8.640;2023-02-26T09:22:30;2.60;99.90
26342;DHT22;14054;50.108;8.640;2023-02-26T09:24:55;2.70;99.90
26342;DHT22;14054;50.108;8.640;2023-02-26T09:27:21;2.70;99.90
26342;DHT22;14054;50.108;8.640;2023-02-26T09:29:47;3.30;99.90
26342;DHT22;14054;50.108;8.640;2023-02-26T09:32:12;3.80;99.90
26342;DHT22;14054;50.108;8.640;2023-02-26T09:34:38;3.90;99.90
26342;DHT22;14054;50.108;8.640;2023-02-26T09:37:04;4.30;99.90
26342;DHT22;14054;50.108;8.640;2023-02-26T09:39:30;4.20;99.90
26342;DHT22;14054;50.108;8.640;2023-02-26T09:41:56;4.40;99.90
26342;DHT22;14054;50.108;8.640;2023-02-26T09:44:29;4.10;99.90
26342;DHT22;14054;50.108;8.640;2023-02-26T09:47:01;4.30;99.90
26342;DHT22;14054;50.108;8.640;2023-02-26T09:52:48;4.30;99.90
26342;DHT22;14054;50.108;8.640;2023-02-26T09:54:49;4.60;99.90
26342;DHT22;14054;50.108;8.640;2023-02-26T09:57:19;4.80;99.90
26342;DHT22;14054;50.108;8.640;2023-02-26T10:51:35;5.40;99.90
26342;DHT22;14054;50.108;8.640;2023-02-26T10:56:44;6.10;99.90
26342;DHT22;14054;50.108;8.640;2023-02-26T10:59:10;6.40;99.90
26342;DHT22;14054;50.108;8.640;2023-02-26T11:01:35;5.90;99.90
26342;DHT22;14054;50.108;8.640;2023-02-26T11:04:02;6.20;99.90
26342;DHT22;14054;50.108;8.640;2023-02-26T11:06:30;6.20;99.90
26342;DHT22;14054;50.108;8.640;2023-02-26T11:08:58;6.30;99.90
26342;DHT22;14054;50.108;8.640;2023-02-26T11:14:09;5.70;99.90
26342;DHT22;14054;50.108;8.640;2023-02-26T11:16:40;6.30;99.90
26342;DHT22;14054;50.108;8.640;2023-02-26T11:19:06;5.90;99.90
26342;DHT22;14054;50.108;8.640;2023-02-26T11:21:38;5.60;99.90
26342;DHT22;14054;50.108;8.640;2023-02-26T11:24:10;5.30;99.90
26342;DHT22;14054;50.108;8.640;2023-02-26T11:26:37;5.10;99.90
26342;DHT22;14054;50.108;8.640;2023-02-26T11:29:03;5.10;99.90
26342;DHT22;14054;50.108;8.640;2023-02-26T11:31:29;4.90;99.90
26342;DHT22;14054;50.108;8.640;2023-02-26T11:34:03;5.20;99.90
26342;DHT22;14054;50.108;8.640;2023-02-26T11:36:29;5.00;99.90
26342;DHT22;14054;50.108;8.640;2023-02-26T11:38:57;5.10;99.90
26342;DHT22;14054;50.108;8.640;2023-02-26T11:41:25;5.10;99.90
26342;DHT22;14054;50.108;8.640;2023-02-26T11:43:59;5.00;99.90
26342;DHT22;14054;50.108;8.640;2023-02-26T11:46:25;4.90;99.90
26342;DHT22;14054;50.108;8.640;2023-02-26T11:48:51;5.00;99.90
26342;DHT22;14054;50.108;8.640;2023-02-26T11:51:18;4.70;99.90
26342;DHT22;14054;50.108;8.640;2023-02-26T11:53:48;4.60;99.90
26342;DHT22;14054;50.108;8.640;2023-02-26T11:56:21;4.70;99.90
26342;DHT22;14054;50.108;8.640;2023-02-26T11:58:49;4.70;99.90
26342;DHT22;14054;50.108;8.640;2023-02-26T12:01:15;4.90;99.90
26342;DHT22;14054;50.108;8.640;2023-02-26T12:03:43;5.00;99.90
26342;DHT22;14054;50.108;8.640;2023-02-26T12:06:19;5.60;99.90
26342;DHT22;14054;50.108;8.640;2023-02-26T12:08:46;5.90;99.90
26342;DHT22;14054;50.108;8.640;2023-02-26T12:16:32;6.50;99.80
26342;DHT22;14054;50.108;8.640;2023-02-26T12:19:14;6.40;99.30
26342;DHT22;14054;50.108;8.640;2023-02-26T12:27:02;5.10;99.90
26342;DHT22;14054;50.108;8.640;2023-02-26T12:32:17;4.90;99.90
26342;DHT22;14054;50.108;8.640;2023-02-26T12:34:58;5.10;99.90
26342;DHT22;14054;50.108;8.640;2023-02-26T12:42:49;4.60;99.90
26342;DHT22;14054;50.108;8.640;2023-02-26T12:50:25;4.70;99.90
26342;DHT22;14054;50.108;8.640;2023-02-26T12:55:47;5.20;99.90
26342;DHT22;14054;50.108;8.640;2023-02-26T13:03:49;5.10;99.90
26342;DHT22;14054;50.108;8.640;2023-02-26T13:06:24;5.10;99.90
26342;DHT22;14054;50.108;8.640;2023-02-26T13:09:04;5.40;99.90
26342;DHT22;14054;50.108;8.640;2023-02-26T13:11:49;5.50;99.90
26342;DHT22;14054;50.108;8.640;2023-02-26T13:19:30;7.30;96.70
26342;DHT22;14054;50.108;8.640;2023-02-26T13:22:00;6.80;97.10
26342;DHT22;14054;50.108;8.640;2023-02-26T13:24:33;6.20;98.10
26342;DHT22;14054;50.108;8.640;2023-02-26T13:27:00;5.60;99.00
26342;DHT22;14054;50.108;8.640;2023-02-26T13:29:28;6.00;99.90
26342;DHT22;14054;50.108;8.640;2023-02-26T13:31:58;6.00;98.70
26342;DHT22;14054;50.108;8.640;2023-02-26T13:34:34;5.80;99.70
26342;DHT22;14054;50.108;8.640;2023-02-26T13:37:01;6.30;98.80
26342;DHT22;14054;50.108;8.640;2023-02-26T13:42:20;5.30;99.90
26342;DHT22;14054;50.108;8.640;2023-02-26T13:49:53;5.30;99.90
26342;DHT22;14054;50.108;8.640;2023-02-26T13:52:30;4.60;99.90
26342;DHT22;14054;50.108;8.640;2023-02-26T13:54:56;4.50;99.90
26342;DHT22;14054;50.108;8.640;2023-02-26T13:58:07;4.40;99.90
26342;DHT22;14054;50.108;8.640;2023-02-26T14:00:24;4.70;99.90
26342;DHT22;14054;50.108;8.640;2023-02-26T14:08:07;4.80;99.90
26342;DHT22;14054;50.108;8.640;2023-02-26T14:13:14;7.30;94.50
26342;DHT22;14054;50.108;8.640;2023-02-26T14:15:47;8.10;92.20
26342;DHT22;14054;50.108;8.640;2023-02-26T14:18:18;8.20;91.40
26342;DHT22;14054;50.108;8.640;2023-02-26T14:20:44;6.90;92.30
26342;DHT22;14054;50.108;8.640;2023-02-26T14:23:12;6.50;93.80
26342;DHT22;14054;50.108;8.640;2023-02-26T14:31:04;5.90;98.80
26342;DHT22;14054;50.108;8.640;2023-02-26T14:33:30;6.20;99.60
26342;DHT22;14054;50.108;8.640;2023-02-26T14:36:01;6.30;99.10
26342;DHT22;14054;50.108;8.640;2023-02-26T14:38:35;5.50;99.70
26342;DHT22;14054;50.108;8.640;2023-02-26T14:41:03;5.20;99.90
26342;DHT22;14054;50.108;8.640;2023-02-26T14:45:55;5.40;99.90
26342;DHT22;14054;50.108;8.640;2023-02-26T14:48:20;5.40;99.80
26342;DHT22;14054;50.108;8.640;2023-02-26T14:53:22;5.40;99.70
26342;DHT22;14054;50.108;8.640;2023-02-26T14:56:03;5.40;99.90
26342;DHT22;14054;50.108;8.640;2023-02-26T15:01:18;5.20;99.10
26342;DHT22;14054;50.108;8.640;2023-02-26T15:08:56;5.00;99.90
26342;DHT22;14054;50.108;8.640;2023-02-26T15:16:35;5.20;99.10
26342;DHT22;14054;50.108;8.640;2023-02-26T15:24:14;4.80;99.90
26342;DHT22;14054;50.108;8.640;2023-02-26T15:26:45;4.60;99.90
26342;DHT22;14054;50.108;8.640;2023-02-26T15:29:12;4.70;99.90
26342;DHT22;14054;50.108;8.640;2023-02-26T15:31:42;4.70;99.90
26342;DHT22;14054;50.108;8.640;2023-02-26T15:34:09;4.60;99.90
26342;DHT22;14054;50.108;8.640;2023-02-26T15:36:38;4.60;99.90
26342;DHT22;14054;50.108;8.640;2023-02-26T15:39:05;4.60;99.90
26342;DHT22;14054;50.108;8.640;2023-02-26T15:41:33;4.60;99.90
26342;DHT22;14054;50.108;8.640;2023-02-26T15:44:00;4.30;99.90
26342;DHT22;14054;50.108;8.640;2023-02-26T15:46:27;4.30;99.90
26342;DHT22;14054;50.108;8.640;2023-02-26T15:48:55;4.30;99.90
26342;DHT22;14054;50.108;8.640;2023-02-26T15:51:23;4.20;99.90
26342;DHT22;14054;50.108;8.640;2023-02-26T15:53:49;4.20;99.90
26342;DHT22;14054;50.108;8.640;2023-02-26T15:56:25;4.00;99.90
26342;DHT22;14054;50.108;8.640;2023-02-26T15:58:54;3.90;99.90
26342;DHT22;14054;50.108;8.640;2023-02-26T16:01:21;3.90;99.90
26342;DHT22;14054;50.108;8.640;2023-02-26T16:03:48;3.80;99.90
26342;DHT22;14054;50.108;8.640;2023-02-26T16:06:17;3.60;99.90
26342;DHT22;14054;50.108;8.640;2023-02-26T16:08:43;3.50;99.90
26342;DHT22;14054;50.108;8.640;2023-02-26T16:13:35;3.40;99.90
26342;DHT22;14054;50.108;8.640;2023-02-26T16:16:13;3.50;99.90
26342;DHT22;14054;50.108;8.640;2023-02-26T16:18:39;3.60;99.90
26342;DHT22;14054;50.108;8.640;2023-02-26T16:21:05;3.60;99.90
26342;DHT22;14054;50.108;8.640;2023-02-26T16:23:45;3.60;99.90
26342;DHT22;14054;50.108;8.640;2023-02-26T16:26:13;3.50;99.90
26342;DHT22;14054;50.108;8.640;2023-02-26T16:28:40;3.50;99.90
26342;DHT22;14054;50.108;8.640;2023-02-26T16:31:17;3.40;99.90
26342;DHT22;14054;50.108;8.640;2023-02-26T16:33:48;3.50;99.90
26342;DHT22;14054;50.108;8.640;2023-02-26T16:36:15;3.60;99.90
26342;DHT22;14054;50.108;8.640;2023-02-26T16:38:43;3.40;99.90
26342;DHT22;14054;50.108;8.640;2023-02-26T16:41:10;3.20;99.90
26342;DHT22;14054;50.108;8.640;2023-02-26T16:43:46;3.20;99.90
26342;DHT22;14054;50.108;8.640;2023-02-26T16:46:13;3.10;99.90
26342;DHT22;14054;50.108;8.640;2023-02-26T16:48:46;3.10;99.90
26342;DHT22;14054;50.108;8.640;2023-02-26T16:51:15;3.10;99.90
26342;DHT22;14054;50.108;8.640;2023-02-26T16:53:45;2.90;99.90
26342;DHT22;14054;50.108;8.640;2023-02-26T16:56:14;2.90;99.90
26342;DHT22;14054;50.108;8.640;2023-02-26T16:58:43;2.80;99.90
26342;DHT22;14054;50.108;8.640;2023-02-26T17:03:36;2.80;99.90
26342;DHT22;14054;50.108;8.640;2023-02-26T17:06:04;2.70;99.90
26342;DHT22;14054;50.108;8.640;2023-02-26T17:08:32;2.70;99.90
26342;DHT22;14054;50.108;8.640;2023-02-26T17:11:02;2.70;99.90
26342;DHT22;14054;50.108;8.640;2023-02-26T17:13:29;2.70;99.90
26342;DHT22;14054;50.108;8.640;2023-02-26T17:16:02;2.60;99.90
26342;DHT22;14054;50.108;8.640;2023-02-26T17:18:28;2.60;99.90
26342;DHT22;14054;50.108;8.640;2023-02-26T17:20:55;2.80;99.90
26342;DHT22;14054;50.108;8.640;2023-02-26T17:23:28;2.90;99.90
26342;DHT22;14054;50.108;8.640;2023-02-26T17:25:54;2.70;99.90
26342;DHT22;14054;50.108;8.640;2023-02-26T17:28:24;2.90;99.90
26342;DHT22;14054;50.108;8.640;2023-02-26T17:30:51;2.90;99.90
26342;DHT22;14054;50.108;8.640;2023-02-26T17:33:16;3.00;99.90
26342;DHT22;14054;50.108;8.640;2023-02-26T17:35:42;2.90;99.90
26342;DHT22;14054;50.108;8.640;2023-02-26T17:38:09;2.80;99.90
26342;DHT22;14054;50.108;8.640;2023-02-26T17:40:37;2.70;99.90
26342;DHT22;14054;50.108;8.640;2023-02-26T17:43:04;2.70;99.90
26342;DHT22;14054;50.108;8.640;2023-02-26T17:45:30;2.80;99.90
26342;DHT22;14054;50.108;8.640;2023-02-26T17:47:56;2.80;99.90
26342;DHT22;14054;50.108;8.640;2023-02-26T17:50:25;2.80;99.90
26342;DHT22;14054;50.108;8.640;2023-02-26T17:52:53;2.80;99.90
26342;DHT22;14054;50.108;8.640;2023-02-26T17:55:19;2.80;99.90
26342;DHT22;14054;50.108;8.640;2023-02-26T17:57:44;2.80;99.90
26342;DHT22;14054;50.108;8.640;2023-02-26T18:00:11;2.90;99.90
26342;DHT22;14054;50.108;8.640;2023-02-26T18:02:39;2.80;99.90
26342;DHT22;14054;50.108;8.640;2023-02-26T18:05:04;2.80;99.90
26342;DHT22;14054;50.108;8.640;2023-02-26T18:07:30;2.70;99.90
26342;DHT22;14054;50.108;8.640;2023-02-26T18:09:55;2.60;99.90
26342;DHT22;14054;50.108;8.640;2023-02-26T18:12:21;2.60;99.90
26342;DHT22;14054;50.108;8.640;2023-02-26T18:14:46;2.60;99.90
26342;DHT22;14054;50.108;8.640;2023-02-26T18:17:13;2.60;99.90
26342;DHT22;14054;50.108;8.640;2023-02-26T18:19:39;2.50;99.90
26342;DHT22;14054;50.108;8.640;2023-02-26T18:22:07;2.60;99.90
26342;DHT22;14054;50.108;8.640;2023-02-26T18:24:33;2.60;99.90
26342;DHT22;14054;50.108;8.640;2023-02-26T18:26:58;2.60;99.90
26342;DHT22;14054;50.108;8.640;2023-02-26T18:29:24;2.60;99.90
26342;DHT22;14054;50.108;8.640;2023-02-26T18:31:49;2.50;99.90
26342;DHT22;14054;50.108;8.640;2023-02-26T18:34:14;2.50;99.90
26342;DHT22;14054;50.108;8.640;2023-02-26T18:36:40;2.50;99.90
26342;DHT22;14054;50.108;8.640;2023-02-26T18:39:06;2.60;99.90
26342;DHT22;14054;50.108;8.640;2023-02-26T18:41:32;2.50;99.90
26342;DHT22;14054;50.108;8.640;2023-02-26T18:43:58;2.60;99.90
26342;DHT22;14054;50.108;8.640;2023-02-26T18:46:24;2.50;99.90
26342;DHT22;14054;50.108;8.640;2023-02-26T18:48:51;2.50;99.90